Lynch, Nebraska
Current Conditions -  °F | °C
As of 5:15 PM on Thursday 27 Nov 2014 (Local Time) from KONL Reporting Station
Broken Clouds Broken Clouds  
Wind Chill: 23°   Ceiling: 11000
Heat Index: 33°   Visibility: 10mi
Dew Point: 19°   Wind: 14mph
Humidity: 55%   Direction: 150°SSE
Pressure: 30.09"   Gusts: 21mph
Location:  42.83°N, 98.47°W
Report Text: KONL 272315Z AUTO 15012G18KT 10SM BKN110 01/M07 A3009 RMK AO2 T00051075
Loading
Personal Weather Stations






























Interactive Weather Map New forecast layout! Learn more

10-Day Weather Forecast

Advertisements
Track Severe Weather on mobile